Moana — PBOT — position and weather

sailwx.info

Track history (hours):
 
Tides and Currents Weather Stations Pressure Air Temp Water Temp Dewpoint Dewpoint Depression Visibility Wind Speed Wind Dir Waves Ship Positions

Moana

Last reported at 2017-Nov-23 20:07 UTC. Time now 2017-Nov-24 21:53 UTC.
Position N 43°25' E 009°41'.

Length 90 m; draft 3.8 m.

MMSI: 2463000.

Date/timePositionNaut miles runAvg speedWind from/ knotsBaromVisibWave heightAir tempDewpointWater temp
2017-Nov-23 20:07N 43°25' E 009°41'110.0
2017-Nov-23 20:00N 43°26' E 009°40'510.1
2017-Nov-23 19:30N 43°31' E 009°37'510.1
2017-Nov-23 19:00N 43°35' E 009°34'510.3
2017-Nov-23 18:30N 43°39' E 009°30'510.6
2017-Nov-23 18:00N 43°44' E 009°27'510.6
2017-Nov-23 17:30N 43°49' E 009°23'510.3
2017-Nov-23 17:00N 43°53' E 009°19'510.5
2017-Nov-23 16:30N 43°58' E 009°16'610.2
2017-Nov-23 15:57N 44°03' E 009°12'510.8
2017-Nov-23 15:30N 44°07' E 009°08'5 9.9
2017-Nov-23 15:00N 44°11' E 009°05'510.0
2017-Nov-23 14:30N 44°15' E 009°01'510.3
2017-Nov-23 14:00N 44°20' E 008°58'5 9.1
2017-Nov-23 13:30N 44°24' E 008°55'1 1.9
2017-Nov-23 12:57N 44°24' E 008°53'0 0.0
2017-Nov-23 12:27N 44°24' E 008°53'0 0.0
2017-Nov-23 11:57N 44°24' E 008°53'0 0.0
2017-Nov-23 11:30N 44°24' E 008°53'0 0.0
2017-Nov-23 10:57N 44°24' E 008°53'0 0.0
2017-Nov-23 10:30N 44°24' E 008°53'0 0.0
2017-Nov-23 10:00N 44°24' E 008°53'0 0.0
2017-Nov-23 09:30N 44°24' E 008°53'0 0.0
2017-Nov-23 09:00N 44°24' E 008°53'0 0.0
2017-Nov-23 08:30N 44°24' E 008°53'0 0.0
2017-Nov-23 08:00N 44°24' E 008°53'0 0.0
2017-Nov-23 07:30N 44°24' E 008°53'0 0.0
2017-Nov-23 07:00N 44°24' E 008°53'0 0.0
2017-Nov-23 06:30N 44°24' E 008°53'0 0.0
2017-Nov-23 06:00N 44°24' E 008°53'0 0.0
2017-Nov-23 05:30N 44°24' E 008°53'0 0.0
2017-Nov-23 05:00N 44°24' E 008°53'0 0.0
2017-Nov-23 04:30N 44°24' E 008°53'0 0.0
2017-Nov-23 04:00N 44°24' E 008°53'0 0.0
2017-Nov-23 03:30N 44°24' E 008°53'0 0.0
2017-Nov-23 03:00N 44°24' E 008°53'0 0.0
2017-Nov-23 02:30N 44°24' E 008°53'0 0.0
2017-Nov-23 02:00N 44°24' E 008°53'0 0.0
2017-Nov-23 01:30N 44°24' E 008°53'0 0.0
2017-Nov-23 00:54N 44°24' E 008°53'0 0.0
2017-Nov-23 00:30N 44°24' E 008°53'0 0.0
2017-Nov-23 00:00N 44°24' E 008°53'0 0.0
2017-Nov-22 23:27N 44°24' E 008°53'0 0.0
2017-Nov-22 23:00N 44°24' E 008°53'0 0.0
2017-Nov-22 22:27N 44°24' E 008°53'0 0.0
2017-Nov-22 22:00N 44°24' E 008°53'0 0.0
2017-Nov-22 21:27N 44°24' E 008°53'0 0.0
2017-Nov-22 20:57N 44°24' E 008°53'0 0.0
2017-Nov-22 20:30N 44°24' E 008°53'0 0.0
2017-Nov-22 20:00N 44°24' E 008°53'0 0.0
2017-Nov-22 19:27N 44°24' E 008°53'  
2017-Nov-19 14:57N 38°46' E 015°06'510.5
2017-Nov-19 14:28N 38°42' E 015°10'510.5
2017-Nov-19 13:58N 38°38' E 015°15'510.4
2017-Nov-19 13:29N 38°34' E 015°19'610.4
2017-Nov-19 12:57N 38°31' E 015°24'510.5
2017-Nov-19 12:30N 38°27' E 015°29'610.5
2017-Nov-19 11:55N 38°23' E 015°34'410.5
2017-Nov-19 11:30N 38°20' E 015°38'5 8.9
2017-Nov-19 10:57N 38°15' E 015°41'4 8.0
2017-Nov-19 10:30N 38°13' E 015°37'1111.6
2017-Nov-19 09:35N 38°03' E 015°37'211.5
2017-Nov-19 09:26N 38°01' E 015°37'511.2
2017-Nov-19 09:00N 37°57' E 015°40'611.3
2017-Nov-19 08:30N 37°53' E 015°46'611.2
2017-Nov-19 08:00N 37°52' E 015°52'377 9.1
2017-Nov-17 14:45N 37°10' E 023°45'2210.4
2017-Nov-17 12:37N 37°29' E 023°59'378 7.7
2017-Nov-15 11:48N 37°51' E 016°02'411.8
2017-Nov-15 11:25N 37°52' E 015°57'511.2
2017-Nov-15 11:00N 37°53' E 015°51'611.1
2017-Nov-15 10:29N 37°54' E 015°44'511.1
2017-Nov-15 10:00N 37°58' E 015°39'510.5
2017-Nov-15 09:30N 38°02' E 015°36'611.2
2017-Nov-15 09:00N 38°08' E 015°36'612.4
2017-Nov-15 08:31N 38°14' E 015°36'510.2
2017-Nov-15 08:00N 38°19' E 015°39'611.4
2017-Nov-15 07:30N 38°24' E 015°36'611.3
2017-Nov-15 07:00N 38°29' E 015°33'611.4
2017-Nov-15 06:30N 38°34' E 015°30'611.4
2017-Nov-15 06:00N 38°40' E 015°27'611.8
2017-Nov-15 05:30N 38°45' E 015°24'612.0
2017-Nov-15 05:00N 38°51' E 015°21'11711.4
2017-Nov-14 18:47N 40°36' E 014°16'311.1
2017-Nov-14 18:30N 40°39' E 014°14'511.0
2017-Nov-14 18:00N 40°44' E 014°10'6 9.6
2017-Nov-14 17:20N 40°49' E 014°07'0 0.1
2017-Nov-14 14:53N 40°49' E 014°07'0 0.0
2017-Nov-14 14:29N 40°49' E 014°07'0 0.0
2017-Nov-14 13:59N 40°49' E 014°07'0 0.0
2017-Nov-14 13:23N 40°49' E 014°07'0 0.0
2017-Nov-14 11:17N 40°49' E 014°07'0 0.0
2017-Nov-14 10:47N 40°49' E 014°07'0 0.0
2017-Nov-14 09:17N 40°49' E 014°07'0 0.0
2017-Nov-14 08:47N 40°49' E 014°07'0 0.0
2017-Nov-14 08:29N 40°49' E 014°07'0 0.1
2017-Nov-14 07:44N 40°49' E 014°07'  
Track history (hours):
 
Tides and Currents Weather Stations Pressure Air Temp Water Temp Dewpoint Dewpoint Depression Visibility Wind Speed Wind Dir Waves Ship Positions

Moana

Last reported at 2017-Nov-23 20:07 UTC. Time now 2017-Nov-24 21:53 UTC.
Position N 43°25' E 009°41'.

Length 90 m; draft 3.8 m.

MMSI: 2463000.

Date/timePositionNaut miles runAvg speedWind from/ knotsBaromVisibWave heightAir tempDewpointWater temp
2017-Nov-23 20:07N 43°25' E 009°41'110.0
2017-Nov-23 20:00N 43°26' E 009°40'510.1
2017-Nov-23 19:30N 43°31' E 009°37'510.1
2017-Nov-23 19:00N 43°35' E 009°34'510.3
2017-Nov-23 18:30N 43°39' E 009°30'510.6
2017-Nov-23 18:00N 43°44' E 009°27'510.6
2017-Nov-23 17:30N 43°49' E 009°23'510.3
2017-Nov-23 17:00N 43°53' E 009°19'510.5
2017-Nov-23 16:30N 43°58' E 009°16'610.2
2017-Nov-23 15:57N 44°03' E 009°12'510.8
2017-Nov-23 15:30N 44°07' E 009°08'5 9.9
2017-Nov-23 15:00N 44°11' E 009°05'510.0
2017-Nov-23 14:30N 44°15' E 009°01'510.3
2017-Nov-23 14:00N 44°20' E 008°58'5 9.1
2017-Nov-23 13:30N 44°24' E 008°55'1 1.9
2017-Nov-23 12:57N 44°24' E 008°53'0 0.0
2017-Nov-23 12:27N 44°24' E 008°53'0 0.0
2017-Nov-23 11:57N 44°24' E 008°53'0 0.0
2017-Nov-23 11:30N 44°24' E 008°53'0 0.0
2017-Nov-23 10:57N 44°24' E 008°53'0 0.0
2017-Nov-23 10:30N 44°24' E 008°53'0 0.0
2017-Nov-23 10:00N 44°24' E 008°53'0 0.0
2017-Nov-23 09:30N 44°24' E 008°53'0 0.0
2017-Nov-23 09:00N 44°24' E 008°53'0 0.0
2017-Nov-23 08:30N 44°24' E 008°53'0 0.0
2017-Nov-23 08:00N 44°24' E 008°53'0 0.0
2017-Nov-23 07:30N 44°24' E 008°53'0 0.0
2017-Nov-23 07:00N 44°24' E 008°53'0 0.0
2017-Nov-23 06:30N 44°24' E 008°53'0 0.0
2017-Nov-23 06:00N 44°24' E 008°53'0 0.0
2017-Nov-23 05:30N 44°24' E 008°53'0 0.0
2017-Nov-23 05:00N 44°24' E 008°53'0 0.0
2017-Nov-23 04:30N 44°24' E 008°53'0 0.0
2017-Nov-23 04:00N 44°24' E 008°53'0 0.0
2017-Nov-23 03:30N 44°24' E 008°53'0 0.0
2017-Nov-23 03:00N 44°24' E 008°53'0 0.0
2017-Nov-23 02:30N 44°24' E 008°53'0 0.0
2017-Nov-23 02:00N 44°24' E 008°53'0 0.0
2017-Nov-23 01:30N 44°24' E 008°53'0 0.0
2017-Nov-23 00:54N 44°24' E 008°53'0 0.0
2017-Nov-23 00:30N 44°24' E 008°53'0 0.0
2017-Nov-23 00:00N 44°24' E 008°53'0 0.0
2017-Nov-22 23:27N 44°24' E 008°53'0 0.0
2017-Nov-22 23:00N 44°24' E 008°53'0 0.0
2017-Nov-22 22:27N 44°24' E 008°53'0 0.0
2017-Nov-22 22:00N 44°24' E 008°53'0 0.0
2017-Nov-22 21:27N 44°24' E 008°53'0 0.0
2017-Nov-22 20:57N 44°24' E 008°53'0 0.0
2017-Nov-22 20:30N 44°24' E 008°53'0 0.0
2017-Nov-22 20:00N 44°24' E 008°53'0 0.0
2017-Nov-22 19:27N 44°24' E 008°53'  
2017-Nov-19 14:57N 38°46' E 015°06'510.5
2017-Nov-19 14:28N 38°42' E 015°10'510.5
2017-Nov-19 13:58N 38°38' E 015°15'510.4
2017-Nov-19 13:29N 38°34' E 015°19'610.4
2017-Nov-19 12:57N 38°31' E 015°24'510.5
2017-Nov-19 12:30N 38°27' E 015°29'610.5
2017-Nov-19 11:55N 38°23' E 015°34'410.5
2017-Nov-19 11:30N 38°20' E 015°38'5 8.9
2017-Nov-19 10:57N 38°15' E 015°41'4 8.0
2017-Nov-19 10:30N 38°13' E 015°37'1111.6
2017-Nov-19 09:35N 38°03' E 015°37'211.5
2017-Nov-19 09:26N 38°01' E 015°37'511.2
2017-Nov-19 09:00N 37°57' E 015°40'611.3
2017-Nov-19 08:30N 37°53' E 015°46'611.2
2017-Nov-19 08:00N 37°52' E 015°52'377 9.1
2017-Nov-17 14:45N 37°10' E 023°45'2210.4
2017-Nov-17 12:37N 37°29' E 023°59'378 7.7
2017-Nov-15 11:48N 37°51' E 016°02'411.8
2017-Nov-15 11:25N 37°52' E 015°57'511.2
2017-Nov-15 11:00N 37°53' E 015°51'611.1
2017-Nov-15 10:29N 37°54' E 015°44'511.1
2017-Nov-15 10:00N 37°58' E 015°39'510.5
2017-Nov-15 09:30N 38°02' E 015°36'611.2
2017-Nov-15 09:00N 38°08' E 015°36'612.4
2017-Nov-15 08:31N 38°14' E 015°36'510.2
2017-Nov-15 08:00N 38°19' E 015°39'611.4
2017-Nov-15 07:30N 38°24' E 015°36'611.3
2017-Nov-15 07:00N 38°29' E 015°33'611.4
2017-Nov-15 06:30N 38°34' E 015°30'611.4
2017-Nov-15 06:00N 38°40' E 015°27'611.8
2017-Nov-15 05:30N 38°45' E 015°24'612.0
2017-Nov-15 05:00N 38°51' E 015°21'11711.4
2017-Nov-14 18:47N 40°36' E 014°16'311.1
2017-Nov-14 18:30N 40°39' E 014°14'511.0
2017-Nov-14 18:00N 40°44' E 014°10'6 9.6
2017-Nov-14 17:20N 40°49' E 014°07'0 0.1
2017-Nov-14 14:53N 40°49' E 014°07'0 0.0
2017-Nov-14 14:29N 40°49' E 014°07'0 0.0
2017-Nov-14 13:59N 40°49' E 014°07'0 0.0
2017-Nov-14 13:23N 40°49' E 014°07'0 0.0
2017-Nov-14 11:17N 40°49' E 014°07'0 0.0
2017-Nov-14 10:47N 40°49' E 014°07'0 0.0
2017-Nov-14 09:17N 40°49' E 014°07'0 0.0
2017-Nov-14 08:47N 40°49' E 014°07'0 0.0
2017-Nov-14 08:29N 40°49' E 014°07'0 0.1
2017-Nov-14 07:44N 40°49' E 014°07'  

Dump ship's entire track history